| time (UTC) | temp F | wind direction | speed knots | gust knots | rain 1hr in | rain 24hr in | rain mn in | humidity % | barometer mb |
| 20260505214235 | 54 | 240 | 0.0 | 0.0 | 0.00 | 0.03 | 0.03 | 54 | 1010.1 |
| 20260505213732 | 54 | 233 | 0.9 | 1.7 | 0.00 | 0.03 | 0.03 | 52 | 1009.9 |
| 20260505213230 | 54 | 244 | 0.9 | 1.7 | 0.00 | 0.03 | 0.03 | 53 | 1009.9 |
| 20260505212726 | 54 | 211 | 0.0 | 1.7 | 0.00 | 0.03 | 0.03 | 55 | 1010.2 |
| 20260505212223 | 54 | 217 | 0.0 | 0.0 | 0.00 | 0.03 | 0.03 | 54 | 1010.1 |
| 20260505211720 | 54 | 269 | 0.9 | 2.6 | 0.00 | 0.03 | 0.03 | 53 | 1010.0 |
| 20260505211218 | 54 | 274 | 0.9 | 1.7 | 0.00 | 0.03 | 0.03 | 52 | 1010.0 |
| 20260505210714 | 54 | 243 | 0.0 | 2.6 | 0.00 | 0.03 | 0.03 | 52 | 1010.0 |
| 20260505210210 | 54 | 254 | 1.7 | 2.6 | 0.00 | 0.03 | 0.03 | 51 | 1010.1 |
| 20260505205708 | 54 | 319 | 0.9 | 2.6 | 0.00 | 0.03 | 0.03 | 51 | 1010.3 |
| 20260505205206 | 54 | 303 | 2.6 | 3.5 | 0.00 | 0.03 | 0.03 | 50 | 1010.4 |
| 20260505204702 | 55 | 250 | 0.9 | 3.5 | 0.00 | 0.03 | 0.03 | 50 | 1010.4 |
| 20260505204200 | 55 | 275 | 1.7 | 3.5 | 0.00 | 0.03 | 0.03 | 50 | 1010.5 |
| 20260505203657 | 55 | 287 | 1.7 | 3.5 | 0.00 | 0.03 | 0.03 | 53 | 1010.5 |
| 20260505203154 | 55 | 255 | 1.7 | 1.7 | 0.00 | 0.03 | 0.03 | 55 | 1010.3 |
| 20260505202649 | 55 | 188 | 0.0 | 0.9 | 0.00 | 0.03 | 0.03 | 55 | 1010.3 |
| 20260505202146 | 55 | 260 | 0.0 | 0.0 | 0.00 | 0.03 | 0.03 | 57 | 1010.0 |
| 20260505201643 | 55 | 330 | 0.0 | 1.7 | 0.00 | 0.03 | 0.03 | 55 | 1010.2 |
| 20260505201141 | 55 | 336 | 1.7 | 1.7 | 0.00 | 0.03 | 0.03 | 55 | 1010.0 |
| 20260505200638 | 56 | 333 | 3.5 | 5.2 | 0.00 | 0.03 | 0.03 | 54 | 1009.9 |
| 20260505200135 | 56 | 243 | 1.7 | 2.6 | 0.00 | 0.03 | 0.03 | 55 | 1009.7 |
| 20260505195631 | 56 | 96 | 0.0 | 0.9 | 0.00 | 0.03 | 0.03 | 55 | 1009.7 |
| 20260505195129 | 56 | 309 | 0.9 | 1.7 | 0.00 | 0.03 | 0.03 | 55 | 1010.0 |
| 20260505194625 | 55 | 329 | 0.9 | 1.7 | 0.00 | 0.03 | 0.03 | 54 | 1010.1 |
| 20260505194121 | 55 | 243 | 2.6 | 2.6 | 0.00 | 0.03 | 0.03 | 54 | 1010.2 |
| 20260505193618 | 55 | 286 | 0.9 | 5.2 | 0.00 | 0.03 | 0.03 | 54 | 1010.1 |
| 20260505193115 | 55 | 192 | 0.9 | 2.6 | 0.00 | 0.03 | 0.03 | 53 | 1010.0 |
| 20260505192614 | 55 | 247 | 0.9 | 2.6 | 0.00 | 0.03 | 0.03 | 54 | 1010.0 |
| 20260505192111 | 55 | 268 | 2.6 | 3.5 | 0.00 | 0.03 | 0.03 | 53 | 1010.2 |
| 20260505191609 | 56 | 254 | 2.6 | 5.2 | 0.00 | 0.03 | 0.03 | 54 | 1010.3 |
| 20260505191107 | 55 | 274 | 0.9 | 3.5 | 0.00 | 0.03 | 0.03 | 56 | 1010.3 |
| 20260505190602 | 56 | 254 | 1.7 | 1.7 | 0.00 | 0.03 | 0.03 | 55 | 1010.4 |
| 20260505190057 | 56 | 239 | 1.7 | 3.5 | 0.00 | 0.03 | 0.03 | 55 | 1010.2 |
| 20260505185554 | 56 | 316 | 3.5 | 6.1 | 0.00 | 0.03 | 0.03 | 56 | 1010.5 |
| 20260505185051 | 56 | 201 | 0.9 | 3.5 | 0.00 | 0.03 | 0.03 | 54 | 1010.5 |
| 20260505184548 | 56 | 321 | 3.5 | 5.2 | 0.00 | 0.03 | 0.03 | 56 | 1010.5 |
| 20260505184044 | 56 | 307 | 2.6 | 5.2 | 0.00 | 0.03 | 0.03 | 57 | 1010.4 |
| 20260505183541 | 55 | 269 | 2.6 | 3.5 | 0.00 | 0.03 | 0.03 | 58 | 1010.3 |
| 20260505183039 | 56 | 309 | 1.7 | 2.6 | 0.00 | 0.03 | 0.03 | 57 | 1010.5 |
| 20260505182535 | 55 | 292 | 2.6 | 3.5 | 0.00 | 0.03 | 0.03 | 59 | 1010.5 |
| 20260505182032 | 55 | 259 | 0.9 | 3.5 | 0.00 | 0.03 | 0.03 | 57 | 1010.3 |
| 20260505181528 | 56 | 314 | 1.7 | 2.6 | 0.00 | 0.03 | 0.03 | 59 | 1010.5 |
| 20260505181026 | 56 | 324 | 1.7 | 3.5 | 0.00 | 0.03 | 0.03 | 64 | 1010.4 |
| 20260505180521 | 56 | 227 | 2.6 | 3.5 | 0.00 | 0.03 | 0.03 | 63 | 1010.4 |
| 20260505180020 | 55 | 332 | 1.7 | 2.6 | 0.00 | 0.03 | 0.03 | 63 | 1010.5 |
| 20260505175514 | 55 | 336 | 2.6 | 3.5 | 0.00 | 0.03 | 0.03 | 62 | 1010.0 |
| 20260505175012 | 55 | 234 | 1.7 | 3.5 | 0.00 | 0.03 | 0.03 | 65 | 1010.3 |
| 20260505174508 | 55 | 284 | 1.7 | 2.6 | 0.00 | 0.03 | 0.03 | 66 | 1010.5 |
| 20260505174004 | 55 | 255 | 3.5 | 5.2 | 0.00 | 0.03 | 0.03 | 65 | 1010.3 |
| 20260505173501 | 55 | 244 | 1.7 | 6.1 | 0.00 | 0.03 | 0.03 | 64 | 1010.5 |
| 20260505172958 | 54 | 232 | 1.7 | 2.6 | 0.00 | 0.03 | 0.03 | 66 | 1010.2 |
| 20260505172456 | 54 | 326 | 3.5 | 5.2 | 0.00 | 0.03 | 0.03 | 67 | 1010.3 |
| 20260505171956 | 53 | 312 | 2.6 | 3.5 | 0.00 | 0.03 | 0.03 | 66 | 1010.3 |
| 20260505171453 | 53 | 328 | 3.5 | 3.5 | 0.00 | 0.03 | 0.03 | 66 | 1010.3 |
| 20260505170949 | 53 | 282 | 0.9 | 1.7 | 0.00 | 0.03 | 0.03 | 67 | 1010.4 |
| 20260505170446 | 53 | 17 | 0.0 | 0.9 | 0.00 | 0.03 | 0.03 | 69 | 1010.4 |
| 20260505165942 | 54 | 244 | 3.5 | 3.5 | 0.00 | 0.03 | 0.03 | 68 | 1010.4 |
| 20260505165438 | 54 | 279 | 1.7 | 2.6 | 0.00 | 0.03 | 0.03 | 66 | 1010.4 |
| 20260505164933 | 54 | 35 | 1.7 | 1.7 | 0.00 | 0.03 | 0.03 | 69 | 1010.3 |
| 20260505164430 | 54 | 322 | 0.9 | 3.5 | 0.00 | 0.03 | 0.03 | 67 | 1010.2 |
| 20260505163928 | 54 | 208 | 0.9 | 3.5 | 0.00 | 0.03 | 0.03 | 70 | 1010.3 |
| 20260505163427 | 54 | 279 | 1.7 | 6.1 | 0.00 | 0.03 | 0.03 | 67 | 1010.1 |
| 20260505162926 | 53 | 343 | 2.6 | 3.5 | 0.00 | 0.03 | 0.03 | 70 | 1010.5 |
| 20260505162421 | 52 | 221 | 2.6 | 2.6 | 0.00 | 0.03 | 0.03 | 72 | 1010.4 |
| 20260505161918 | 52 | 307 | 2.6 | 3.5 | 0.00 | 0.03 | 0.03 | 72 | 1010.4 |
| 20260505161414 | 51 | 113 | 0.9 | 2.6 | 0.00 | 0.03 | 0.03 | 77 | 1010.3 |
| 20260505160912 | 50 | 324 | 0.9 | 1.7 | 0.00 | 0.03 | 0.03 | 76 | 1010.6 |
| 20260505160410 | 50 | 85 | 0.0 | 1.7 | 0.00 | 0.03 | 0.03 | 77 | 1010.5 |
| 20260505153349 | 50 | 298 | 0.9 | 2.6 | 0.00 | 0.03 | 0.03 | 81 | 1010.3 |
| 20260505152846 | 48 | 185 | 0.0 | 2.6 | 0.00 | 0.03 | 0.03 | 81 | 1010.3 |
| 20260505152344 | 46 | 346 | 1.7 | 1.7 | 0.07 | 0.03 | 0.03 | 85 | 1010.3 |
| 20260505151843 | 46 | 167 | 0.0 | 0.0 | 0.07 | 0.03 | 0.03 | 85 | 1010.4 |
| 20260505151340 | 45 | 310 | 1.7 | 2.6 | 0.00 | 0.02 | 0.02 | 85 | 1010.3 |
| 20260505150837 | 45 | 213 | 0.0 | 0.9 | 0.00 | 0.02 | 0.02 | 85 | 1010.1 |
| 20260505150335 | 45 | 349 | 0.9 | 1.7 | 0.00 | 0.02 | 0.02 | 85 | 1009.8 |
| 20260505140304 | 44 | 256 | 0.9 | 1.7 | 0.05 | 0.02 | 0.02 | 82 | 1011.2 |
| 20260505130228 | 48 | 15 | 2.6 | 5.2 | 0.00 | 0.00 | 0.00 | 60 | 1009.9 |
| 20260505124718 | 48 | 325 | 0.9 | 2.6 | 0.00 | 0.00 | 0.00 | 64 | 1009.7 |
| 20260505124215 | 49 | 252 | 1.7 | 3.5 | 0.00 | 0.00 | 0.00 | 65 | 1010.0 |
| 20260505123711 | 49 | 346 | 0.9 | 3.5 | 0.00 | 0.00 | 0.00 | 65 | 1009.8 |
| 20260505123208 | 49 | 338 | 3.5 | 5.2 | 0.00 | 0.00 | 0.00 | 65 | 1009.6 |
| 20260505122705 | 49 | 329 | 1.7 | 2.6 | 0.00 | 0.00 | 0.00 | 65 | 1009.3 |
| 20260505122202 | 49 | 277 | 2.6 | 3.5 | 0.00 | 0.00 | 0.00 | 64 | 1009.2 |
| 20260505121658 | 49 | 339 | 2.6 | 3.5 | 0.00 | 0.00 | 0.00 | 64 | 1008.9 |
| 20260505121155 | 50 | 48 | 0.9 | 3.5 | 0.00 | 0.00 | 0.00 | 66 | 1008.6 |
| 20260505120651 | 50 | 120 | 0.0 | 3.5 | 0.00 | 0.00 | 0.00 | 64 | 1008.5 |
| 20260505120147 | 50 | 146 | 0.9 | 5.2 | 0.00 | 0.00 | 0.00 | 63 | 1008.4 |
| 20260505115641 | 50 | 171 | 0.9 | 3.5 | 0.00 | 0.00 | 0.00 | 67 | 1008.5 |
| 20260505115139 | 50 | 116 | 0.0 | 1.7 | 0.00 | 0.00 | 0.00 | 66 | 1008.4 |
| 20260505114636 | 50 | 234 | 0.9 | 0.9 | 0.00 | 0.00 | 0.00 | 67 | 1008.6 |
| 20260505114132 | 50 | 315 | 0.0 | 0.0 | 0.00 | 0.00 | 0.00 | 67 | 1008.7 |
| 20260505113628 | 49 | 113 | 0.0 | 0.0 | 0.00 | 0.00 | 0.00 | 67 | 1008.3 |
| 20260505113125 | 49 | 32 | 0.0 | 0.0 | 0.00 | 0.00 | 0.00 | 70 | 1007.6 |
| 20260505112621 | 49 | 93 | 0.0 | 0.0 | 0.00 | 0.00 | 0.00 | 71 | 1007.2 |
| 20260505112120 | 49 | 78 | 0.9 | 0.9 | 0.00 | 0.00 | 0.00 | 71 | 1007.0 |
| 20260505111619 | 50 | 111 | 0.0 | 0.0 | 0.00 | 0.00 | 0.00 | 73 | 1007.5 |
| 20260505111115 | 50 | 108 | 0.0 | 0.0 | 0.00 | 0.00 | 0.00 | 71 | 1007.5 |
| 20260505110612 | 50 | 130 | 0.0 | 0.9 | 0.00 | 0.00 | 0.00 | 68 | 1007.6 |
| 20260505110109 | 50 | 336 | 0.0 | 0.9 | 0.00 | 0.00 | 0.00 | 68 | 1007.8 |
| 20260505102045 | 51 | 95 | 0.0 | 0.0 | 0.00 | 0.00 | 0.00 | 65 | 1007.6 |
| 20260505101543 | 51 | 346 | 0.9 | 1.7 | 0.00 | 0.00 | 0.00 | 64 | 1007.9 |
| 20260505101039 | 51 | 185 | 0.0 | 0.9 | 0.00 | 0.00 | 0.00 | 66 | 1007.6 |
| 20260505100536 | 51 | 324 | 0.0 | 1.7 | 0.00 | 0.00 | 0.00 | 63 | 1007.7 |
| 20260505100033 | 52 | 9 | 0.9 | 1.7 | 0.00 | 0.00 | 0.00 | 64 | 1007.8 |
| 20260505095529 | 52 | 146 | 0.0 | 1.7 | 0.00 | 0.00 | 0.00 | 65 | 1007.5 |
| 20260505095025 | 53 | 314 | 1.7 | 1.7 | 0.00 | 0.00 | 0.00 | 66 | 1007.6 |
| 20260505094522 | 53 | 286 | 1.7 | 3.5 | 0.00 | 0.00 | 0.00 | 65 | 1007.5 |
| 20260505094018 | 53 | 180 | 0.0 | 1.7 | 0.00 | 0.00 | 0.00 | 69 | 1007.1 |
| 20260505093515 | 53 | 276 | 2.6 | 2.6 | 0.00 | 0.00 | 0.00 | 80 | 1007.2 |
| 20260505093012 | 54 | 349 | 0.0 | 0.0 | 0.00 | 0.00 | 0.00 | 93 | 1006.9 |
| 20260505092510 | 54 | 355 | 0.0 | 0.0 | 0.00 | 0.00 | 0.00 | 93 | 1006.8 |
| 20260505092008 | 53 | 302 | 0.0 | 0.9 | 0.00 | 0.00 | 0.00 | 94 | 1006.7 |
| 20260505091504 | 53 | 321 | 0.0 | 0.0 | 0.00 | 0.00 | 0.00 | 94 | 1006.4 |
| 20260505091003 | 53 | 186 | 0.0 | 0.0 | 0.00 | 0.00 | 0.00 | 93 | 1005.8 |
| 20260505090500 | 54 | 194 | 0.0 | 0.0 | 0.00 | 0.00 | 0.00 | 93 | 1006.0 |
| 20260505085957 | 54 | 115 | 0.0 | 0.0 | 0.00 | 0.00 | 0.00 | 93 | 1006.1 |
| 20260505085455 | 54 | 212 | 0.0 | 0.0 | 0.00 | 0.00 | 0.00 | 93 | 1006.0 |
| 20260505084953 | 54 | 226 | 0.0 | 0.0 | 0.00 | 0.00 | 0.00 | 92 | 1006.0 |
| 20260505084452 | 54 | 276 | 0.0 | 0.0 | 0.00 | 0.00 | 0.00 | 92 | 1005.8 |
| 20260505083949 | 54 | 145 | 0.0 | 0.0 | 0.00 | 0.00 | 0.00 | 92 | 1005.1 |
| 20260505083446 | 54 | 202 | 0.0 | 0.0 | 0.00 | 0.00 | 0.00 | 91 | 1005.4 |
| 20260505082942 | 54 | 166 | 0.0 | 0.0 | 0.00 | 0.00 | 0.00 | 92 | 1005.5 |
| 20260505082438 | 54 | 256 | 0.0 | 0.0 | 0.00 | 0.00 | 0.00 | 91 | 1005.8 |
| 20260505081935 | 54 | 209 | 0.0 | 0.0 | 0.00 | 0.00 | 0.00 | 91 | 1005.3 |
| 20260505081432 | 54 | 232 | 0.0 | 0.0 | 0.00 | 0.00 | 0.00 | 92 | 1005.3 |
| 20260505080928 | 54 | 226 | 0.0 | 0.0 | 0.00 | 0.00 | 0.00 | 92 | 1005.3 |
| 20260505080425 | 54 | 218 | 0.0 | 0.0 | 0.00 | 0.00 | 0.00 | 92 | 1005.4 |
| 20260505075920 | 54 | 233 | 0.0 | 0.0 | 0.00 | 0.00 | 0.00 | 92 | 1005.2 |
| 20260505075417 | 54 | 224 | 0.0 | 0.0 | 0.00 | 0.00 | 0.00 | 92 | 1004.8 |
| 20260505074915 | 54 | 213 | 0.0 | 0.0 | 0.00 | 0.00 | 0.00 | 92 | 1004.7 |
| 20260505074412 | 54 | 214 | 0.0 | 0.0 | 0.00 | 0.00 | 0.00 | 92 | 1004.5 |
| 20260505073909 | 54 | 226 | 0.0 | 0.0 | 0.00 | 0.00 | 0.00 | 93 | 1004.6 |
| 20260505073407 | 54 | 223 | 0.0 | 0.0 | 0.00 | 0.00 | 0.00 | 93 | 1004.7 |
| 20260505072904 | 54 | 197 | 0.0 | 0.0 | 0.00 | 0.00 | 0.00 | 94 | 1004.8 |
| 20260505072359 | 54 | 219 | 0.0 | 0.0 | 0.00 | 0.00 | 0.00 | 94 | 1004.8 |
| 20260505071856 | 54 | 246 | 0.9 | 0.9 | 0.00 | 0.00 | 0.00 | 94 | 1004.6 |
| 20260505071352 | 54 | 211 | 0.9 | 1.7 | 0.00 | 0.00 | 0.00 | 93 | 1004.4 |
| 20260505070851 | 54 | 195 | 0.0 | 0.0 | 0.00 | 0.00 | 0.00 | 93 | 1004.1 |
| 20260505070346 | 54 | 188 | 0.0 | 0.0 | 0.00 | 0.00 | 0.00 | 92 | 1004.0 |
| 20260505065842 | 54 | 197 | 0.0 | 0.0 | 0.00 | 0.00 | 0.00 | 92 | 1004.3 |
| 20260505065339 | 55 | 197 | 0.0 | 0.0 | 0.00 | 0.00 | 0.00 | 92 | 1004.3 |
| 20260505064836 | 55 | 203 | 0.0 | 0.0 | 0.00 | 0.00 | 0.00 | 91 | 1004.2 |
| 20260505064333 | 55 | 203 | 0.0 | 0.0 | 0.00 | 0.00 | 0.00 | 91 | 1004.2 |
| 20260505063831 | 55 | 213 | 0.0 | 0.9 | 0.00 | 0.00 | 0.00 | 91 | 1004.1 |
| 20260505063327 | 55 | 211 | 0.9 | 1.7 | 0.00 | 0.00 | 0.00 | 91 | 1004.1 |
| 20260505062824 | 55 | 202 | 1.7 | 1.7 | 0.00 | 0.00 | 0.00 | 91 | 1003.8 |
| 20260505062321 | 55 | 223 | 0.0 | 0.0 | 0.00 | 0.00 | 0.00 | 90 | 1003.7 |
| 20260505061818 | 55 | 212 | 0.9 | 0.9 | 0.00 | 0.00 | 0.00 | 90 | 1003.9 |
| 20260505061316 | 55 | 208 | 0.0 | 0.9 | 0.00 | 0.00 | 0.00 | 90 | 1003.8 |
| 20260505060813 | 56 | 215 | 1.7 | 1.7 | 0.00 | 0.00 | 0.00 | 89 | 1003.4 |
| 20260505060310 | 56 | 214 | 0.0 | 0.0 | 0.00 | 0.00 | 0.00 | 89 | 1003.3 |
| 20260505055806 | 56 | 212 | 0.0 | 0.0 | 0.00 | 0.00 | 0.00 | 88 | 1003.2 |
| 20260505055303 | 56 | 251 | 0.9 | 0.9 | 0.00 | 0.00 | 0.00 | 89 | 1003.2 |
| 20260505054759 | 56 | 246 | 0.9 | 1.7 | 0.00 | 0.00 | 0.00 | 89 | 1003.4 |
| 20260505054257 | 56 | 226 | 0.0 | 0.0 | 0.00 | 0.00 | 0.00 | 89 | 1003.3 |
| 20260505053755 | 56 | 248 | 0.9 | 1.7 | 0.00 | 0.00 | 0.00 | 88 | 1003.5 |
| 20260505053251 | 56 | 241 | 0.9 | 2.6 | 0.00 | 0.00 | 0.00 | 88 | 1003.5 |
| 20260505052749 | 56 | 215 | 1.7 | 3.5 | 0.00 | 0.00 | 0.00 | 88 | 1003.4 |
| 20260505052245 | 57 | 215 | 1.7 | 2.6 | 0.00 | 0.00 | 0.00 | 88 | 1003.6 |
| 20260505051742 | 57 | 188 | 2.6 | 5.2 | 0.00 | 0.00 | 0.00 | 88 | 1003.4 |
| 20260505051240 | 57 | 202 | 3.5 | 3.5 | 0.00 | 0.00 | 0.00 | 88 | 1003.7 |
| 20260505050738 | 57 | 301 | 1.7 | 3.5 | 0.00 | 0.00 | 0.00 | 88 | 1003.5 |
| 20260505050236 | 57 | 232 | 1.7 | 3.5 | 0.00 | 0.00 | 0.00 | 88 | 1003.3 |
| 20260505041706 | 58 | 243 | 2.6 | 3.5 | 0.00 | 0.38 | 0.38 | 87 | 1003.1 |
| 20260505041203 | 58 | 225 | 1.7 | 7.0 | 0.00 | 0.38 | 0.38 | 88 | 1003.5 |
| 20260505040700 | 57 | 248 | 3.5 | 3.5 | 0.00 | 0.38 | 0.38 | 91 | 1003.5 |
| 20260505040157 | 57 | 235 | 1.7 | 5.2 | 0.00 | 0.38 | 0.38 | 92 | 1003.1 |
| 20260505035654 | 56 | 217 | 1.7 | 2.6 | 0.00 | 0.38 | 0.38 | 92 | 1002.9 |
| 20260505035150 | 57 | 229 | 1.7 | 1.7 | 0.07 | 0.38 | 0.38 | 92 | 1002.7 |
| 20260505034647 | 57 | 231 | 1.7 | 1.7 | 0.07 | 0.38 | 0.38 | 92 | 1002.3 |
| 20260505034144 | 56 | 189 | 0.9 | 1.7 | 0.00 | 0.37 | 0.37 | 93 | 1001.9 |
| 20260505033640 | 56 | 194 | 3.5 | 5.2 | 0.00 | 0.37 | 0.37 | 94 | 1002.2 |
| 20260505033139 | 56 | 201 | 2.6 | 3.5 | 0.00 | 0.37 | 0.37 | 94 | 1002.4 |
| 20260505032637 | 56 | 202 | 1.7 | 2.6 | 0.00 | 0.37 | 0.37 | 94 | 1002.8 |
| 20260505032132 | 56 | 170 | 0.0 | 0.0 | 0.00 | 0.37 | 0.37 | 94 | 1002.9 |
| 20260505031630 | 56 | 188 | 0.0 | 0.0 | 0.00 | 0.37 | 0.37 | 94 | 1002.8 |
| 20260505031126 | 56 | 175 | 0.0 | 0.0 | 0.00 | 0.37 | 0.37 | 93 | 1002.8 |
| 20260505030623 | 56 | 183 | 0.0 | 0.0 | 0.00 | 0.37 | 0.37 | 93 | 1003.1 |
| 20260505030119 | 57 | 181 | 0.0 | 0.0 | 0.00 | 0.37 | 0.37 | 92 | 1003.0 |
| 20260505025615 | 57 | 85 | 0.0 | 0.0 | 0.00 | 0.37 | 0.37 | 91 | 1003.1 |
| 20260505025114 | 57 | 212 | 0.0 | 0.9 | 0.12 | 0.37 | 0.37 | 90 | 1003.6 |
| 20260505024611 | 57 | 227 | 0.0 | 1.7 | 0.24 | 0.37 | 0.37 | 89 | 1003.5 |
| 20260505024108 | 57 | 232 | 1.7 | 3.5 | 0.17 | 0.35 | 0.35 | 89 | 1003.7 |
| 20260505023605 | 57 | 248 | 1.7 | 8.7 | 0.17 | 0.33 | 0.33 | 90 | 1004.0 |
| 20260505023103 | 57 | 217 | 6.1 | 7.8 | 0.12 | 0.31 | 0.31 | 90 | 1004.0 |
| 20260505022600 | 57 | 245 | 3.5 | 6.1 | 0.12 | 0.30 | 0.30 | 90 | 1003.8 |
| 20260505022057 | 57 | 201 | 5.2 | 7.8 | 0.12 | 0.29 | 0.29 | 91 | 1003.9 |
| 20260505021553 | 57 | 235 | 3.5 | 3.5 | 0.19 | 0.28 | 0.28 | 90 | 1003.5 |
| 20260505021050 | 57 | 231 | 3.5 | 5.2 | 0.19 | 0.27 | 0.27 | 89 | 1003.5 |
| 20260505020550 | 57 | 227 | 3.5 | 7.0 | 0.07 | 0.25 | 0.25 | 88 | 1003.5 |
| 20260505020047 | 58 | 213 | 4.3 | 9.6 | 0.12 | 0.24 | 0.24 | 87 | 1004.0 |
| 20260505015544 | 58 | 250 | 5.2 | 8.7 | 0.47 | 0.23 | 0.23 | 85 | 1003.6 |
| 20260505015041 | 60 | 249 | 7.8 | 12.2 | 0.35 | 0.21 | 0.21 | 82 | 1003.0 |
| 20260505014538 | 60 | 226 | 2.6 | 7.0 | 0.07 | 0.15 | 0.15 | 82 | 1003.4 |
| 20260505014035 | 61 | 226 | 1.7 | 5.2 | 0.07 | 0.15 | 0.15 | 80 | 1002.5 |
| 20260505013532 | 61 | 270 | 3.5 | 7.0 | 0.42 | 0.14 | 0.14 | 80 | 1002.3 |
| 20260505013029 | 62 | 315 | 4.3 | 7.8 | 0.78 | 0.13 | 0.13 | 80 | 1002.8 |
| 20260505012527 | 67 | 183 | 1.7 | 9.6 | 0.42 | 0.07 | 0.07 | 73 | 1002.8 |
| 20260505012024 | 69 | 300 | 6.1 | 13.0 | 0.00 | 0.00 | 0.00 | 61 | 1002.0 |
| 20260505011519 | 72 | 257 | 6.1 | 8.7 | 0.00 | 0.00 | 0.00 | 55 | 1002.3 |
| 20260505011017 | 72 | 270 | 4.3 | 7.8 | 0.00 | 0.00 | 0.00 | 53 | 1001.1 |
| 20260505010512 | 72 | 237 | 2.6 | 7.8 | 0.00 | 0.00 | 0.00 | 53 | 1001.5 |
| 20260505010009 | 72 | 254 | 3.5 | 6.1 | 0.00 | 0.00 | 0.00 | 53 | 1001.3 |
| 20260505005506 | 72 | 243 | 3.5 | 6.1 | 0.00 | 0.00 | 0.00 | 53 | 1001.1 |
| 20260505005004 | 72 | 225 | 1.7 | 5.2 | 0.00 | 0.00 | 0.00 | 52 | 1001.4 |
| 20260505004500 | 72 | 225 | 3.5 | 6.1 | 0.00 | 0.00 | 0.00 | 52 | 1001.2 |
| 20260505003956 | 73 | 216 | 4.3 | 7.0 | 0.00 | 0.00 | 0.00 | 51 | 1001.3 |
| 20260505003454 | 73 | 252 | 5.2 | 7.8 | 0.00 | 0.00 | 0.00 | 51 | 1001.1 |
| 20260505002950 | 73 | 209 | 5.2 | 7.0 | 0.00 | 0.00 | 0.00 | 51 | 1000.9 |
| 20260505002446 | 73 | 228 | 6.1 | 8.7 | 0.00 | 0.00 | 0.00 | 50 | 1000.6 |
| 20260505001945 | 73 | 287 | 5.2 | 12.2 | 0.00 | 0.00 | 0.00 | 50 | 1000.3 |
| 20260505001442 | 72 | 223 | 3.5 | 7.0 | 0.00 | 0.00 | 0.00 | 51 | 1000.3 |
| 20260505000939 | 69 | 289 | 3.5 | 6.1 | 0.00 | 0.00 | 0.00 | 54 | 1000.7 |
| 20260505000437 | 68 | 351 | 0.9 | 0.9 | 0.00 | 0.00 | 0.00 | 53 | 1000.7 |
| 20260504235933 | 68 | 171 | 1.7 | 1.7 | 0.00 | 0.00 | 0.00 | 52 | 1000.7 |
| 20260504235431 | 70 | 151 | 0.0 | 1.7 | 0.00 | 0.00 | 0.00 | 49 | 1000.6 |
| 20260504234927 | 74 | 305 | 4.3 | 7.0 | 0.00 | 0.00 | 0.00 | 45 | 1001.1 |
| 20260504234424 | 74 | 239 | 4.3 | 7.0 | 0.00 | 0.00 | 0.00 | 47 | 1000.8 |
| 20260504233921 | 74 | 231 | 5.2 | 9.6 | 0.00 | 0.00 | 0.00 | 47 | 1000.9 |
| 20260504233417 | 74 | 242 | 4.3 | 6.1 | 0.00 | 0.00 | 0.00 | 47 | 1001.0 |
| 20260504232913 | 74 | 256 | 4.3 | 8.7 | 0.00 | 0.00 | 0.00 | 47 | 1000.9 |
| 20260504232411 | 74 | 260 | 4.3 | 7.0 | 0.00 | 0.00 | 0.00 | 48 | 1000.8 |
| 20260504231908 | 74 | 271 | 4.3 | 8.7 | 0.00 | 0.00 | 0.00 | 47 | 1001.0 |
| 20260504231404 | 74 | 250 | 5.2 | 7.0 | 0.00 | 0.00 | 0.00 | 47 | 1000.7 |
| 20260504230900 | 74 | 208 | 8.7 | 11.3 | 0.00 | 0.00 | 0.00 | 47 | 1000.5 |
| 20260504230357 | 74 | 252 | 7.0 | 9.6 | 0.00 | 0.00 | 0.00 | 48 | 1000.5 |
| 20260504225856 | 74 | 235 | 2.6 | 7.8 | 0.00 | 0.00 | 0.00 | 47 | 1000.7 |
| 20260504225352 | 74 | 230 | 6.1 | 9.6 | 0.00 | 0.00 | 0.00 | 47 | 1000.4 |
| 20260504224850 | 74 | 185 | 5.2 | 13.0 | 0.00 | 0.00 | 0.00 | 46 | 1000.3 |
| 20260504224346 | 75 | 209 | 5.2 | 9.6 | 0.00 | 0.00 | 0.00 | 46 | 1000.5 |
| 20260504223843 | 75 | 189 | 8.7 | 11.3 | 0.00 | 0.00 | 0.00 | 45 | 1000.6 |
| 20260504223339 | 75 | 217 | 5.2 | 14.8 | 0.00 | 0.00 | 0.00 | 46 | 1000.5 |
| 20260504222835 | 75 | 269 | 8.7 | 13.0 | 0.00 | 0.00 | 0.00 | 44 | 1000.8 |
| 20260504222332 | 76 | 224 | 6.1 | 11.3 | 0.00 | 0.00 | 0.00 | 46 | 1000.9 |
| 20260504221831 | 76 | 241 | 3.5 | 9.6 | 0.00 | 0.00 | 0.00 | 48 | 1000.8 |
| 20260504221327 | 76 | 218 | 5.2 | 9.6 | 0.00 | 0.00 | 0.00 | 47 | 1001.1 |
| 20260504220824 | 76 | 276 | 5.2 | 11.3 | 0.00 | 0.00 | 0.00 | 50 | 1000.8 |
| 20260504220321 | 75 | 199 | 7.8 | 12.2 | 0.00 | 0.00 | 0.00 | 50 | 1001.0 |
| 20260504215819 | 76 | 226 | 6.1 | 8.7 | 0.00 | 0.00 | 0.00 | 51 | 1001.1 |
| 20260504215315 | 76 | 219 | 4.3 | 13.0 | 0.00 | 0.00 | 0.00 | 52 | 1001.1 |
| 20260504214811 | 75 | 210 | 5.2 | 14.8 | 0.00 | 0.00 | 0.00 | 52 | 1000.9 |
| 20260504214308 | 75 | 248 | 8.7 | 12.2 | 0.00 | 0.00 | 0.00 | 52 | 1001.3 |